createdAt,value
2023-04-04T00:09:12.968Z,101513.19
2023-04-04T00:19:18.224Z,101515.06
2023-04-04T00:29:23.270Z,101506.44
2023-04-04T00:39:27.541Z,101498.66
2023-04-04T00:49:33.781Z,101492.53
2023-04-04T00:59:37.593Z,101477.25
2023-04-04T01:09:42.997Z,101472.16
2023-04-04T01:20:00.367Z,101462.16
2023-04-04T01:30:07.492Z,101461.31
2023-04-04T01:40:19.710Z,101470.09
2023-04-04T01:50:24.937Z,101472.41
2023-04-04T02:00:28.641Z,101467.16
2023-04-04T02:10:33.639Z,101470.66
2023-04-04T02:20:37.762Z,101473.53
2023-04-04T02:30:43.102Z,101467.94
2023-04-04T02:40:47.286Z,101463.56
2023-04-04T02:50:52.354Z,101453.38
2023-04-04T03:00:56.476Z,101445.03
2023-04-04T03:11:01.624Z,101431.13
2023-04-04T03:21:05.690Z,101425.25
2023-04-04T03:31:10.656Z,101429.56
2023-04-04T03:41:14.344Z,101426.88
2023-04-04T03:51:25.646Z,101422.50
2023-04-04T04:01:29.279Z,101426.44
2023-04-04T04:11:34.375Z,101413.50
2023-04-04T04:21:38.028Z,101412.50
2023-04-04T04:31:43.379Z,101407.72
2023-04-04T04:41:48.344Z,101410.03
2023-04-04T04:51:53.693Z,101418.25
2023-04-04T05:01:57.564Z,101420.44
2023-04-04T05:12:02.739Z,101428.34
2023-04-04T05:22:08.032Z,101425.06
2023-04-04T05:32:13.377Z,101425.13
2023-04-04T05:42:17.312Z,101429.22
2023-04-04T05:52:22.441Z,101434.28
2023-04-04T06:02:26.687Z,101432.69
2023-04-04T06:12:32.023Z,101444.91
2023-04-04T06:22:36.025Z,101437.28
2023-04-04T06:32:45.090Z,101428.16
2023-04-04T06:42:50.603Z,101442.31
2023-04-04T06:52:57.325Z,101435.59
2023-04-04T07:03:02.070Z,101432.78
2023-04-04T07:13:07.270Z,101436.72
2023-04-04T07:23:11.396Z,101439.47
2023-04-04T07:33:16.537Z,101431.44
2023-04-04T07:43:23.608Z,101420.91
2023-04-04T07:53:28.992Z,101420.38
2023-04-04T08:03:32.908Z,101412.00
2023-04-04T08:13:39.035Z,101385.88
2023-04-04T08:23:42.882Z,101391.06
2023-04-04T08:33:48.122Z,101386.25
2023-04-04T08:43:55.262Z,101387.56
2023-04-04T08:54:03.444Z,101377.75
2023-04-04T09:04:08.081Z,101366.66
2023-04-04T09:14:13.167Z,101382.50
2023-04-04T09:24:17.266Z,101366.75
2023-04-04T09:34:22.311Z,101363.38
2023-04-04T09:44:26.408Z,101364.19
2023-04-04T09:54:32.931Z,101373.66
2023-04-04T10:04:37.201Z,101369.06
2023-04-04T10:14:42.849Z,101356.84
2023-04-04T10:24:46.672Z,101352.06
2023-04-04T10:35:00.774Z,101360.41
2023-04-04T10:45:19.862Z,101358.03
2023-04-04T10:55:27.389Z,101334.34
2023-04-04T11:05:34.543Z,101338.34
2023-04-04T11:15:55.663Z,101319.84
2023-04-04T11:26:00.374Z,101286.84
2023-04-04T11:36:25.646Z,101281.41
2023-04-04T11:46:30.697Z,101279.09
2023-04-04T11:56:37.729Z,101257.94
2023-04-04T12:06:42.785Z,101236.44
2023-04-04T12:16:50.542Z,101241.09
2023-04-04T12:26:54.949Z,101231.59
2023-04-04T12:37:02.848Z,101231.81
2023-04-04T12:47:08.900Z,101211.94
2023-04-04T12:57:19.947Z,101213.16
2023-04-04T13:07:26.417Z,101197.84
2023-04-04T13:17:44.494Z,101192.09
2023-04-04T13:27:48.443Z,101175.25
2023-04-04T13:37:53.586Z,101159.44
2023-04-04T13:47:57.354Z,101149.75
2023-04-04T13:58:02.728Z,101156.44
2023-04-04T14:08:06.667Z,101128.06
2023-04-04T14:18:12.297Z,101108.94
2023-04-04T14:28:16.289Z,101101.09
2023-04-04T14:38:21.673Z,101096.56
2023-04-04T14:48:25.480Z,101092.25
2023-04-04T14:58:30.593Z,101080.91
2023-04-04T15:08:34.606Z,101070.63
2023-04-04T15:18:40.224Z,101067.19
2023-04-04T15:28:44.397Z,101055.00
2023-04-04T15:38:49.953Z,101060.25
2023-04-04T15:48:53.935Z,101053.34
2023-04-04T15:59:02.439Z,101036.19
2023-04-04T16:09:06.491Z,101043.69
2023-04-04T16:19:14.129Z,101020.22
2023-04-04T16:29:18.827Z,101032.13
2023-04-04T16:39:24.257Z,101033.88
2023-04-04T16:49:28.028Z,101035.31
2023-04-04T16:59:35.084Z,101022.53
2023-04-04T17:09:39.197Z,101029.94
2023-04-04T17:19:44.531Z,101027.59
2023-04-04T17:29:48.448Z,101029.66
2023-04-04T17:39:54.079Z,101035.31
2023-04-04T17:49:58.181Z,101044.97
2023-04-04T18:00:03.760Z,101055.22
2023-04-04T18:10:09.495Z,101060.59
2023-04-04T18:20:27.779Z,101064.50
2023-04-04T18:30:37.534Z,101066.78
2023-04-04T18:40:45.296Z,101070.16
2023-04-04T18:50:49.005Z,101084.97
2023-04-04T19:00:55.752Z,101087.25
2023-04-04T19:11:02.778Z,101102.16
2023-04-04T19:21:10.052Z,101106.50
2023-04-04T19:31:22.437Z,101088.03
2023-04-04T19:41:35.981Z,101090.56
2023-04-04T19:51:53.056Z,101082.03
2023-04-04T20:02:00.862Z,101092.22
2023-04-04T20:12:09.303Z,101099.88
2023-04-04T20:22:16.305Z,101103.97
2023-04-04T20:32:20.321Z,101102.53
2023-04-04T20:42:40.225Z,101109.81
2023-04-04T20:52:46.560Z,101114.63
2023-04-04T21:02:51.946Z,101104.50
2023-04-04T21:12:58.940Z,101129.56
2023-04-04T21:23:07.230Z,101121.34
2023-04-04T21:33:17.716Z,101127.38
2023-04-04T21:43:22.724Z,101121.97
2023-04-04T21:53:26.858Z,101131.25
2023-04-04T22:03:32.002Z,101118.88
2023-04-04T22:13:42.832Z,101126.13
2023-04-04T22:23:48.094Z,101137.50
2023-04-04T22:33:51.969Z,101132.00
2023-04-04T22:43:57.432Z,101109.88
2023-04-04T22:54:01.264Z,101110.47
2023-04-04T23:04:06.609Z,101104.34
2023-04-04T23:14:14.699Z,101097.09
2023-04-04T23:24:19.697Z,101094.50
2023-04-04T23:34:23.450Z,101093.41
2023-04-04T23:44:28.575Z,101082.00
2023-04-04T23:54:32.342Z,101082.63
